Hovedside
METAR-TAF:

METAR-TAF

Lufthavner :

Notodden, Norge

Notodden lufthavn

breddegrad: 59-34N, lengdegrad: 009-13E, høyde over havet: 19 m

Gjeldene værobservasjon

Denne rapporten ble laget for 3 timer og 49 minutter siden, klokken 16:50 UTC
Vind 5 kt fra Vest-nordvest
Temperatur 17°C
Luftfuktighet 48%
Trykk 1022 hPa
Sikt 10 km eller mer
ingen skyer under 1500 m og ingen bygeskyer

METAR: ENNO 261650Z 30005KT CAVOK 17/06 Q1022

Tid: 22:39 (20:39 UTC)

Varsel

Denne rapporten ble laget for 6 timer og 54 minutter siden, klokken 13:45 UTC
Varsel gyldig fra 26. klokken 13 UTC til 26. klokken 17 UTC
Vind 10 kt fra Vest-nordvest
Sikt 10 km eller mer
ingen skyer under 1500 m og ingen bygeskyer

TAF: ENNO 261345Z 2613/2617 30010KT CAVOK

Værobservasjoner og værvarsel for over 4000 flyplasser (METAR- og TAF-rapporter).

Tilgjengelige stasjoner er representert av de røde og gule prikkene på kartet.

Hold musepekeren over prikken for å se navnet på stasjonen.

Klikk så for å se værobservasjoner og -varsler.

For å forandre kartet kan du klikke på den grønne knappen med svart kryss for å zoome inn, på den grønne knappen med strek for å zoome ut, eller på de grønne pilene for å se tilstøtende kart.


METAR-TAF: